createdAt,value
2023-03-08T00:01:14.173Z,92.19
2023-03-08T00:06:15.884Z,91.52
2023-03-08T00:11:17.963Z,91.79
2023-03-08T00:16:19.382Z,91.92
2023-03-08T00:21:20.867Z,91.98
2023-03-08T00:26:22.733Z,91.93
2023-03-08T00:31:24.258Z,92.16
2023-03-08T00:36:28.229Z,91.88
2023-03-08T00:41:29.722Z,91.94
2023-03-08T00:46:31.852Z,91.68
2023-03-08T00:51:33.294Z,91.42
2023-03-08T00:56:34.729Z,92.55
2023-03-08T01:01:36.210Z,93.75
2023-03-08T01:06:37.678Z,94.27
2023-03-08T01:11:39.566Z,94.03
2023-03-08T01:16:41.288Z,94.00
2023-03-08T01:21:42.736Z,94.35
2023-03-08T01:26:44.163Z,94.67
2023-03-08T01:31:45.674Z,94.33
2023-03-08T01:36:47.106Z,94.03
2023-03-08T01:41:52.066Z,94.08
2023-03-08T01:46:53.576Z,93.46
2023-03-08T01:52:36.451Z,92.57
2023-03-08T01:57:53.345Z,92.29
2023-03-08T02:03:04.650Z,91.79
2023-03-08T02:08:06.346Z,92.04
2023-03-08T02:13:11.546Z,91.71
2023-03-08T02:18:16.563Z,91.28
2023-03-08T02:23:21.155Z,91.78
2023-03-08T02:28:25.122Z,91.70
2023-03-08T02:33:27.545Z,91.85
2023-03-08T02:38:32.019Z,91.97
2023-03-08T02:43:34.419Z,91.67
2023-03-08T02:48:36.236Z,92.10
2023-03-08T02:53:38.584Z,91.97
2023-03-08T02:58:40.124Z,92.42
2023-03-08T03:03:41.985Z,92.20
2023-03-08T03:08:43.448Z,91.70
2023-03-08T03:13:45.477Z,91.91
2023-03-08T03:18:48.466Z,92.07
2023-03-08T03:23:50.129Z,92.71
2023-03-08T03:28:59.333Z,92.46
2023-03-08T03:34:05.096Z,92.82
2023-03-08T03:39:07.234Z,92.82
2023-03-08T03:44:11.732Z,92.70
2023-03-08T03:49:14.601Z,92.88
2023-03-08T03:54:18.781Z,92.74
2023-03-08T03:59:22.953Z,93.00
2023-03-08T04:04:25.125Z,92.90
2023-03-08T04:09:28.590Z,92.31
2023-03-08T04:14:46.602Z,92.89
2023-03-08T04:19:50.214Z,92.81
2023-03-08T04:24:52.847Z,92.39
2023-03-08T04:30:01.298Z,92.76
2023-03-08T04:35:05.704Z,92.61
2023-03-08T04:40:09.666Z,92.30
2023-03-08T04:45:18.346Z,92.65
2023-03-08T04:50:19.974Z,92.47
2023-03-08T04:55:21.594Z,92.28
2023-03-08T05:00:23.269Z,91.70
2023-03-08T05:05:25.777Z,91.44
2023-03-08T05:10:28.470Z,92.70
2023-03-08T05:15:30.347Z,92.20
2023-03-08T05:20:31.906Z,92.62
2023-03-08T05:25:33.641Z,93.50
2023-03-08T05:30:36.199Z,92.96
2023-03-08T05:35:37.865Z,93.06
2023-03-08T05:40:40.794Z,93.21
2023-03-08T05:45:43.604Z,93.38
2023-03-08T05:50:45.112Z,93.87
2023-03-08T05:55:46.936Z,92.99
2023-03-08T06:00:48.484Z,92.74
2023-03-08T06:05:50.277Z,93.10
2023-03-08T06:10:52.049Z,93.55
2023-03-08T06:15:57.789Z,93.41
2023-03-08T06:21:14.700Z,93.17
2023-03-08T06:26:17.107Z,93.30
2023-03-08T06:31:20.669Z,93.43
2023-03-08T06:36:22.664Z,93.24
2023-03-08T06:41:25.105Z,92.56
2023-03-08T06:46:30.240Z,92.91
2023-03-08T06:51:31.863Z,91.87
2023-03-08T06:56:34.024Z,92.77
2023-03-08T07:01:35.647Z,92.93
2023-03-08T07:06:39.935Z,93.02
2023-03-08T07:11:41.391Z,92.93
2023-03-08T07:16:42.929Z,93.12
2023-03-08T07:21:44.489Z,93.04
2023-03-08T07:26:45.945Z,93.37
2023-03-08T07:31:47.364Z,93.61
2023-03-08T07:36:50.894Z,94.10
2023-03-08T07:41:52.363Z,93.51
2023-03-08T07:46:53.916Z,94.41
2023-03-08T07:51:55.903Z,94.68
2023-03-08T07:56:57.447Z,94.37
2023-03-08T08:01:59.169Z,95.12
2023-03-08T08:07:00.662Z,95.50
2023-03-08T08:12:02.140Z,96.06
2023-03-08T08:17:04.147Z,96.08
2023-03-08T08:22:07.602Z,96.61
2023-03-08T08:27:09.085Z,96.10
2023-03-08T08:32:10.527Z,96.01
2023-03-08T08:37:11.995Z,96.12
2023-03-08T08:42:13.471Z,96.21
2023-03-08T08:47:14.982Z,96.35
2023-03-08T08:52:16.485Z,96.63
2023-03-08T08:57:17.929Z,96.44
2023-03-08T09:02:19.472Z,96.44
2023-03-08T09:07:21.825Z,96.87
2023-03-08T09:12:23.416Z,97.19
2023-03-08T09:17:24.900Z,97.35
2023-03-08T09:22:26.471Z,97.00
2023-03-08T09:27:27.969Z,96.27
2023-03-08T09:32:29.494Z,96.75
2023-03-08T09:37:31.575Z,96.45
2023-03-08T09:42:34.032Z,96.84
2023-03-08T09:47:39.999Z,96.60
2023-03-08T09:53:04.380Z,96.55
2023-03-08T09:58:17.956Z,96.72
2023-03-08T10:03:19.366Z,96.65
2023-03-08T10:08:26.036Z,96.81
2023-03-08T10:13:39.736Z,96.40
2023-03-08T10:18:50.430Z,95.82
2023-03-08T10:24:07.102Z,95.67
2023-03-08T10:29:11.818Z,96.25
2023-03-08T10:34:19.559Z,96.78
2023-03-08T10:39:21.849Z,96.61
2023-03-08T10:44:44.201Z,96.24
2023-03-08T10:49:47.502Z,96.73
2023-03-08T10:55:00.822Z,96.02
2023-03-08T11:00:25.812Z,96.15
2023-03-08T11:05:28.838Z,96.01
2023-03-08T11:10:32.203Z,95.76
2023-03-08T11:15:37.922Z,95.78
2023-03-08T11:20:55.411Z,96.23
2023-03-08T11:26:16.490Z,95.74
2023-03-08T11:31:26.881Z,96.11
2023-03-08T11:37:05.505Z,96.43
2023-03-08T11:42:22.175Z,95.91
2023-03-08T11:47:48.160Z,96.31
2023-03-08T11:53:03.502Z,95.75
2023-03-08T11:58:14.479Z,96.01
2023-03-08T12:03:29.193Z,96.01
2023-03-08T12:08:45.327Z,95.96
2023-03-08T12:13:52.978Z,95.88
2023-03-08T12:19:06.734Z,95.73
2023-03-08T12:24:26.583Z,95.48
2023-03-08T12:30:04.585Z,95.66
2023-03-08T12:35:24.598Z,95.50
2023-03-08T12:40:44.020Z,95.80
2023-03-08T12:46:07.559Z,96.05
2023-03-08T12:51:12.100Z,95.89
2023-03-08T12:56:38.134Z,95.68
2023-03-08T13:02:01.165Z,95.39
2023-03-08T13:07:05.635Z,95.49
2023-03-08T13:12:16.260Z,95.81
2023-03-08T13:17:29.634Z,95.94
2023-03-08T13:22:41.538Z,95.91
2023-03-08T13:27:58.241Z,95.87
2023-03-08T13:33:00.540Z,95.86
2023-03-08T13:38:02.052Z,96.34
2023-03-08T13:43:05.525Z,95.87
2023-03-08T13:48:08.831Z,95.65
2023-03-08T13:53:16.979Z,95.97
2023-03-08T13:58:25.648Z,95.91
2023-03-08T14:03:29.846Z,96.15
2023-03-08T14:08:31.360Z,96.39
2023-03-08T14:13:35.853Z,95.59
2023-03-08T14:18:40.121Z,96.04
2023-03-08T14:23:46.016Z,95.72
2023-03-08T14:28:47.588Z,94.75
2023-03-08T14:34:23.343Z,94.79
2023-03-08T14:39:27.510Z,94.63
2023-03-08T14:44:29.487Z,94.79
2023-03-08T14:49:31.026Z,94.30
2023-03-08T14:54:37.386Z,94.13
2023-03-08T14:59:41.658Z,93.95
2023-03-08T15:04:44.595Z,93.97
2023-03-08T15:09:47.547Z,94.14
2023-03-08T15:14:48.988Z,94.63
2023-03-08T15:19:50.409Z,94.08
2023-03-08T15:24:51.842Z,93.54
2023-03-08T15:29:53.271Z,93.68
2023-03-08T15:34:54.661Z,93.60
2023-03-08T15:39:56.094Z,93.19
2023-03-08T15:44:57.490Z,93.34
2023-03-08T15:49:59.342Z,93.28
2023-03-08T15:55:00.818Z,93.10
2023-03-08T16:00:05.008Z,92.84
2023-03-08T16:05:14.356Z,93.17
2023-03-08T16:10:16.472Z,92.68
2023-03-08T16:15:18.495Z,92.68
2023-03-08T16:20:21.478Z,92.62
2023-03-08T16:25:23.117Z,92.79
2023-03-08T16:30:24.726Z,92.84
2023-03-08T16:35:26.270Z,92.90
2023-03-08T16:40:31.069Z,92.95
2023-03-08T16:45:32.623Z,92.40
2023-03-08T16:50:34.086Z,92.22
2023-03-08T16:55:36.183Z,92.25
2023-03-08T17:00:37.968Z,92.73
2023-03-08T17:05:41.890Z,92.36
2023-03-08T17:10:45.051Z,92.37
2023-03-08T17:15:47.620Z,92.34
2023-03-08T17:20:49.403Z,92.01
2023-03-08T17:25:51.522Z,92.57
2023-03-08T17:30:53.015Z,92.34
2023-03-08T17:35:59.090Z,92.07
2023-03-08T17:41:04.968Z,92.89
2023-03-08T17:46:16.770Z,92.24
2023-03-08T17:51:21.011Z,92.20
2023-03-08T17:56:32.126Z,92.14
2023-03-08T18:01:33.771Z,92.29
2023-03-08T18:06:42.733Z,92.11
2023-03-08T18:11:44.288Z,92.23
2023-03-08T18:16:46.319Z,92.66
2023-03-08T18:21:53.937Z,92.24
2023-03-08T18:26:55.391Z,92.76
2023-03-08T18:31:56.932Z,92.26
2023-03-08T18:36:58.733Z,92.30
2023-03-08T18:42:01.187Z,92.27
2023-03-08T18:58:51.634Z,92.35
2023-03-08T19:04:06.881Z,92.76
2023-03-08T19:09:10.883Z,92.01
2023-03-08T19:14:12.860Z,92.63
2023-03-08T19:19:15.781Z,92.60
2023-03-08T19:24:20.740Z,92.72
2023-03-08T19:29:24.577Z,92.39
2023-03-08T19:34:38.300Z,92.27
2023-03-08T19:39:40.845Z,92.36
2023-03-08T19:44:47.409Z,92.79
2023-03-08T19:49:49.682Z,92.20
2023-03-08T19:54:51.234Z,92.24
2023-03-08T19:59:52.723Z,92.47
2023-03-08T20:04:54.190Z,92.66
2023-03-08T20:09:57.544Z,92.93
2023-03-08T20:15:02.158Z,92.45
2023-03-08T20:20:05.266Z,92.56
2023-03-08T20:25:07.469Z,92.55
2023-03-08T20:30:11.106Z,92.63
2023-03-08T20:35:13.950Z,92.57
2023-03-08T20:40:16.756Z,92.59
2023-03-08T20:45:18.304Z,92.61
2023-03-08T20:50:24.734Z,92.40
2023-03-08T20:55:26.166Z,93.13
2023-03-08T21:00:27.649Z,93.29
2023-03-08T21:05:35.372Z,93.11
2023-03-08T21:10:39.105Z,93.07
2023-03-08T21:15:40.665Z,93.08
2023-03-08T21:20:42.116Z,92.39
2023-03-08T21:25:43.527Z,92.36
2023-03-08T21:30:45.488Z,92.84
2023-03-08T21:35:46.975Z,92.63
2023-03-08T21:40:48.415Z,92.57
2023-03-08T21:45:50.052Z,92.69
2023-03-08T21:50:51.548Z,92.33
2023-03-08T21:55:53.406Z,92.44
2023-03-08T22:00:54.966Z,92.40
2023-03-08T22:05:57.463Z,92.55
2023-03-08T22:10:58.884Z,92.82
2023-03-08T22:16:00.424Z,92.83
2023-03-08T22:21:01.894Z,92.36
2023-03-08T22:26:07.758Z,92.88
2023-03-08T22:31:11.685Z,92.65
2023-03-08T22:36:15.061Z,92.78
2023-03-08T22:41:20.965Z,92.72
2023-03-08T22:46:25.104Z,92.68
2023-03-08T22:51:28.220Z,92.98
2023-03-08T22:56:30.257Z,92.96
2023-03-08T23:01:32.866Z,92.46
2023-03-08T23:06:34.966Z,92.70
2023-03-08T23:11:37.409Z,92.72
2023-03-08T23:16:44.710Z,92.75
2023-03-08T23:21:47.154Z,92.36
2023-03-08T23:26:48.720Z,92.85
2023-03-08T23:31:50.182Z,92.60
2023-03-08T23:36:51.624Z,92.29
2023-03-08T23:41:53.022Z,92.62
2023-03-08T23:46:54.438Z,92.41
2023-03-08T23:51:55.993Z,92.25
2023-03-08T23:56:57.389Z,92.54
